createdAt,value
2023-08-20T00:01:13.458Z,12.30
2023-08-20T00:04:15.855Z,11.70
2023-08-20T00:07:19.438Z,12.15
2023-08-20T00:10:21.183Z,11.82
2023-08-20T00:13:22.766Z,13.40
2023-08-20T00:16:24.562Z,12.90
2023-08-20T00:19:26.392Z,12.30
2023-08-20T00:22:28.178Z,12.35
2023-08-20T00:25:30.039Z,11.95
2023-08-20T00:28:31.730Z,12.95
2023-08-20T00:31:33.358Z,12.63
2023-08-20T00:34:35.225Z,12.57
2023-08-20T00:37:37.107Z,12.55
2023-08-20T00:40:39.055Z,13.27
2023-08-20T00:43:40.597Z,13.38
2023-08-20T00:46:42.380Z,12.45
2023-08-20T00:49:43.985Z,12.88
2023-08-20T00:52:46.685Z,12.90
2023-08-20T00:55:48.727Z,13.00
2023-08-20T00:58:50.948Z,11.80
2023-08-20T01:01:52.571Z,11.70
2023-08-20T01:04:54.191Z,11.98
2023-08-20T01:08:14.174Z,11.75
2023-08-20T01:11:28.042Z,12.00
2023-08-20T01:14:29.664Z,11.43
2023-08-20T01:17:32.146Z,11.55
2023-08-20T01:20:40.392Z,13.23
2023-08-20T01:24:00.665Z,12.48
2023-08-20T01:27:20.770Z,12.63
2023-08-20T01:30:22.745Z,12.85
2023-08-20T01:33:26.236Z,12.48
2023-08-20T01:36:27.822Z,15.00
2023-08-20T01:39:29.396Z,13.30
2023-08-20T01:42:30.887Z,13.60
2023-08-20T01:45:32.405Z,13.27
2023-08-20T01:48:33.982Z,13.18
2023-08-20T01:51:37.521Z,12.25
2023-08-20T01:54:39.053Z,12.57
2023-08-20T01:57:40.584Z,12.73
2023-08-20T02:00:42.158Z,13.57
2023-08-20T02:03:43.721Z,13.63
2023-08-20T02:06:45.231Z,12.20
2023-08-20T02:09:49.651Z,13.63
2023-08-20T02:12:51.237Z,14.65
2023-08-20T02:16:03.485Z,12.40
2023-08-20T02:19:06.777Z,13.13
2023-08-20T02:22:08.375Z,14.50
2023-08-20T02:25:09.932Z,14.30
2023-08-20T02:28:11.536Z,14.23
2023-08-20T02:31:14.152Z,15.40
2023-08-20T02:34:15.739Z,13.30
2023-08-20T02:37:17.295Z,13.80
2023-08-20T02:40:20.069Z,14.70
2023-08-20T02:43:21.610Z,12.75
2023-08-20T02:46:23.171Z,14.07
2023-08-20T02:49:24.757Z,13.40
2023-08-20T02:52:26.243Z,12.18
2023-08-20T02:55:27.812Z,13.90
2023-08-20T02:58:29.369Z,13.18
2023-08-20T03:01:31.690Z,12.10
2023-08-20T03:04:33.362Z,12.48
2023-08-20T03:07:35.188Z,12.75
2023-08-20T03:10:37.008Z,12.48
2023-08-20T03:13:38.638Z,13.65
2023-08-20T03:16:40.215Z,13.27
2023-08-20T03:19:58.663Z,15.00
2023-08-20T03:23:00.259Z,12.35
2023-08-20T03:26:01.826Z,12.55
2023-08-20T03:29:04.351Z,13.30
2023-08-20T03:32:06.108Z,13.02
2023-08-20T03:35:07.987Z,13.23
2023-08-20T03:38:09.718Z,13.73
2023-08-20T03:41:11.914Z,14.40
2023-08-20T03:44:13.688Z,14.43
2023-08-20T03:47:16.792Z,14.32
2023-08-20T03:50:18.374Z,14.45
2023-08-20T03:53:20.432Z,13.32
2023-08-20T03:56:21.956Z,13.93
2023-08-20T03:59:23.504Z,14.02
2023-08-20T04:02:25.071Z,13.43
2023-08-20T04:05:26.652Z,12.68
2023-08-20T04:08:28.392Z,13.93
2023-08-20T04:11:30.585Z,13.05
2023-08-20T04:14:32.215Z,13.15
2023-08-20T04:17:34.001Z,12.50
2023-08-20T04:20:35.985Z,12.82
2023-08-20T04:23:38.334Z,12.60
2023-08-20T04:26:39.866Z,12.95
2023-08-20T04:29:41.454Z,12.15
2023-08-20T04:32:43.115Z,13.48
2023-08-20T04:35:44.693Z,12.77
2023-08-20T04:38:46.239Z,12.05
2023-08-20T04:41:48.239Z,12.70
2023-08-20T04:44:53.016Z,12.60
2023-08-20T04:47:54.964Z,12.73
2023-08-20T04:50:56.594Z,11.93
2023-08-20T04:53:58.125Z,12.07
2023-08-20T04:56:59.679Z,11.38
2023-08-20T05:00:02.138Z,12.32
2023-08-20T05:03:18.996Z,12.15
2023-08-20T05:06:20.852Z,11.65
2023-08-20T05:09:23.068Z,12.25
2023-08-20T05:12:24.773Z,11.25
2023-08-20T05:15:26.310Z,11.48
2023-08-20T05:18:28.106Z,11.52
2023-08-20T05:21:29.962Z,11.85
2023-08-20T05:24:32.150Z,12.57
2023-08-20T05:27:35.121Z,11.48
2023-08-20T05:30:38.826Z,12.43
2023-08-20T05:33:40.422Z,12.30
2023-08-20T05:36:43.334Z,12.73
2023-08-20T05:39:45.685Z,12.27
2023-08-20T05:42:50.563Z,12.15
2023-08-20T05:45:53.840Z,12.15
2023-08-20T05:52:00.740Z,11.55
2023-08-20T05:55:04.273Z,11.90
2023-08-20T05:58:06.053Z,11.38
2023-08-20T06:01:08.546Z,11.10
2023-08-20T06:04:10.587Z,10.60
2023-08-20T06:07:12.167Z,11.30
2023-08-20T06:10:13.763Z,11.75
2023-08-20T06:13:15.395Z,11.18
2023-08-20T06:16:16.924Z,10.80
2023-08-20T06:19:18.618Z,10.57
2023-08-20T06:22:20.164Z,11.00
2023-08-20T06:25:21.706Z,10.60
2023-08-20T06:28:23.231Z,11.15
2023-08-20T06:31:24.831Z,11.57
2023-08-20T06:34:26.352Z,10.85
2023-08-20T06:37:27.904Z,10.88
2023-08-20T06:40:29.596Z,10.50
2023-08-20T06:43:31.144Z,10.18
2023-08-20T06:46:32.725Z,10.38
2023-08-20T06:49:34.255Z,10.40
2023-08-20T06:52:35.853Z,9.88
2023-08-20T06:55:37.610Z,10.30
2023-08-20T06:58:40.800Z,9.48
2023-08-20T07:01:42.478Z,9.65
2023-08-20T07:04:44.033Z,9.77
2023-08-20T07:07:46.622Z,9.35
2023-08-20T07:10:48.197Z,10.02
2023-08-20T07:13:49.729Z,9.55
2023-08-20T07:16:51.258Z,9.95
2023-08-20T07:19:52.835Z,9.48
2023-08-20T07:22:54.791Z,9.65
2023-08-20T07:26:13.057Z,9.60
2023-08-20T07:29:14.575Z,9.65
2023-08-20T07:32:16.113Z,9.57
2023-08-20T07:35:17.676Z,9.63
2023-08-20T07:38:19.219Z,9.70
2023-08-20T07:41:21.475Z,9.73
2023-08-20T07:44:23.046Z,10.05
2023-08-20T07:47:24.623Z,10.55
2023-08-20T07:50:26.156Z,9.80
2023-08-20T07:53:27.718Z,9.00
2023-08-20T07:56:30.299Z,9.88
2023-08-20T07:59:31.835Z,10.23
2023-08-20T08:02:33.359Z,10.35
2023-08-20T08:05:34.888Z,9.93
2023-08-20T08:08:36.455Z,9.70
2023-08-20T08:11:37.980Z,9.43
2023-08-20T08:14:39.511Z,10.02
2023-08-20T08:17:41.102Z,9.65
2023-08-20T08:20:43.029Z,8.27
2023-08-20T08:23:44.535Z,9.07
2023-08-20T08:26:46.093Z,8.68
2023-08-20T08:29:47.612Z,8.48
2023-08-20T08:32:49.451Z,9.02
2023-08-20T08:35:51.044Z,8.82
2023-08-20T08:38:53.605Z,8.68
2023-08-20T08:42:01.748Z,8.70
2023-08-20T08:45:04.216Z,8.70
2023-08-20T08:48:06.293Z,8.52
2023-08-20T08:51:07.911Z,8.70
2023-08-20T08:54:10.166Z,8.30
2023-08-20T08:57:12.243Z,8.95
2023-08-20T09:00:14.408Z,9.02
2023-08-20T09:03:16.182Z,8.50
2023-08-20T09:06:17.731Z,7.85
2023-08-20T09:09:20.929Z,8.38
2023-08-20T09:12:22.486Z,8.10
2023-08-20T09:15:33.057Z,8.52
2023-08-20T09:18:42.491Z,9.05
2023-08-20T09:21:48.041Z,8.48
2023-08-20T09:24:57.181Z,9.23
2023-08-20T09:27:58.809Z,9.10
2023-08-20T09:31:04.039Z,9.23
2023-08-20T09:34:05.841Z,9.98
2023-08-20T09:37:11.710Z,9.93
2023-08-20T09:40:13.356Z,9.68
2023-08-20T09:43:16.854Z,9.95
2023-08-20T09:49:24.106Z,9.88
2023-08-20T09:55:35.642Z,10.57
2023-08-20T09:58:39.299Z,10.05
2023-08-20T10:01:41.869Z,9.88
2023-08-20T10:04:44.767Z,10.10
2023-08-20T10:07:46.918Z,10.18
2023-08-20T10:10:48.455Z,10.35
2023-08-20T10:13:50.365Z,10.60
2023-08-20T10:16:54.018Z,10.18
2023-08-20T10:19:58.705Z,9.85
2023-08-20T10:23:04.544Z,10.18
2023-08-20T10:26:12.441Z,9.90
2023-08-20T10:29:39.759Z,9.43
2023-08-20T10:32:45.037Z,10.10
2023-08-20T10:35:46.755Z,9.85
2023-08-20T10:38:48.558Z,9.85
2023-08-20T10:42:20.630Z,8.95
2023-08-20T10:45:22.326Z,9.73
2023-08-20T10:48:25.412Z,10.30
2023-08-20T10:51:33.081Z,9.75
2023-08-20T10:54:35.492Z,9.90
2023-08-20T10:57:37.737Z,8.85
2023-08-20T11:00:39.618Z,9.83
2023-08-20T11:03:42.625Z,9.40
2023-08-20T11:06:45.197Z,8.88
2023-08-20T11:09:48.179Z,9.03
2023-08-20T11:12:49.708Z,8.75
2023-08-20T11:15:51.291Z,9.00
2023-08-20T11:18:54.549Z,8.75
2023-08-20T11:24:57.701Z,8.93
2023-08-20T11:27:59.253Z,9.13
2023-08-20T11:31:02.388Z,8.95
2023-08-20T11:34:04.836Z,9.02
2023-08-20T11:37:07.216Z,9.10
2023-08-20T11:40:09.346Z,8.67
2023-08-20T11:43:11.100Z,8.85
2023-08-20T11:46:17.205Z,9.43
2023-08-20T11:49:27.839Z,8.68
2023-08-20T11:52:33.340Z,8.90
2023-08-20T11:55:36.160Z,8.68
2023-08-20T11:58:37.698Z,8.77
2023-08-20T12:01:39.585Z,8.82
2023-08-20T12:04:43.029Z,8.43
2023-08-20T12:07:59.516Z,8.88
2023-08-20T12:11:03.178Z,8.05
2023-08-20T12:14:04.896Z,7.68
2023-08-20T12:17:07.656Z,7.30
2023-08-20T12:20:14.711Z,8.00
2023-08-20T12:23:17.679Z,8.50
2023-08-20T12:26:19.915Z,8.13
2023-08-20T12:29:23.311Z,7.10
2023-08-20T12:32:25.516Z,7.53
2023-08-20T12:35:27.200Z,7.75
2023-08-20T12:41:39.905Z,8.07
2023-08-20T12:44:41.474Z,8.60
2023-08-20T12:47:43.104Z,8.63
2023-08-20T12:53:46.511Z,8.63
2023-08-20T12:56:48.167Z,8.77
2023-08-20T12:59:49.827Z,9.20
2023-08-20T13:02:52.418Z,8.48
2023-08-20T13:05:54.347Z,8.20
2023-08-20T13:08:56.203Z,8.57
2023-08-20T13:11:59.737Z,8.27
2023-08-20T13:15:02.947Z,8.98
2023-08-20T13:18:05.376Z,9.00
2023-08-20T13:21:07.087Z,8.30
2023-08-20T13:24:09.965Z,8.80
2023-08-20T13:27:11.512Z,8.63
2023-08-20T13:30:14.194Z,8.38
2023-08-20T13:33:15.822Z,8.55
2023-08-20T13:36:17.512Z,8.05
2023-08-20T13:39:19.689Z,8.23
2023-08-20T13:42:22.776Z,8.40
2023-08-20T13:45:24.839Z,8.32
2023-08-20T13:48:26.505Z,8.88
2023-08-20T13:51:28.191Z,8.25
2023-08-20T13:54:29.712Z,7.70
2023-08-20T13:57:31.266Z,7.65
2023-08-20T14:00:32.930Z,7.95
2023-08-20T14:03:34.493Z,7.70
2023-08-20T14:06:36.140Z,8.00
2023-08-20T14:09:37.799Z,7.88
2023-08-20T14:12:41.005Z,7.95
2023-08-20T14:15:43.207Z,7.97
2023-08-20T14:18:44.944Z,7.95
2023-08-20T14:21:47.102Z,8.18
2023-08-20T14:24:48.756Z,7.80
2023-08-20T14:27:50.313Z,7.50
2023-08-20T14:30:57.628Z,7.57
2023-08-20T14:33:59.265Z,7.88
2023-08-20T14:37:00.816Z,7.38
2023-08-20T14:40:02.988Z,7.65
2023-08-20T14:43:04.857Z,8.07
2023-08-20T14:46:06.424Z,7.97
2023-08-20T14:49:08.068Z,8.25
2023-08-20T14:52:19.818Z,7.93
2023-08-20T14:55:22.658Z,7.80
2023-08-20T14:58:24.311Z,8.07
2023-08-20T15:01:25.980Z,7.63
2023-08-20T15:04:27.523Z,7.50
2023-08-20T15:07:29.077Z,7.93
2023-08-20T15:10:30.627Z,7.30
2023-08-20T15:13:32.925Z,7.78
2023-08-20T15:16:34.596Z,8.18
2023-08-20T15:19:36.404Z,7.70
2023-08-20T15:22:38.703Z,7.32
2023-08-20T15:25:41.028Z,8.73
2023-08-20T15:28:42.616Z,8.32
2023-08-20T15:31:44.257Z,7.90
2023-08-20T15:34:45.842Z,7.97
2023-08-20T15:37:47.484Z,8.15
2023-08-20T15:40:49.108Z,7.60
2023-08-20T15:43:50.663Z,8.10
2023-08-20T15:46:52.235Z,7.78
2023-08-20T15:49:53.983Z,7.47
2023-08-20T15:52:55.546Z,8.15
2023-08-20T15:55:57.100Z,7.10
2023-08-20T15:58:58.607Z,7.32
2023-08-20T16:02:00.306Z,8.20
2023-08-20T16:08:03.468Z,8.07
2023-08-20T16:11:04.992Z,8.23
2023-08-20T16:14:06.642Z,8.27
2023-08-20T16:17:08.194Z,8.70
2023-08-20T16:20:10.459Z,8.30
2023-08-20T16:23:12.194Z,9.20
2023-08-20T16:26:13.911Z,8.50
2023-08-20T16:29:15.420Z,8.52
2023-08-20T16:32:17.096Z,8.13
2023-08-20T16:35:18.881Z,8.23
2023-08-20T16:38:20.802Z,8.50
2023-08-20T16:41:22.521Z,8.85
2023-08-20T16:44:24.200Z,12.02
2023-08-20T16:47:25.963Z,9.98
2023-08-20T16:50:27.627Z,9.38
2023-08-20T16:53:29.245Z,9.10
2023-08-20T16:56:31.110Z,8.88
2023-08-20T16:59:33.149Z,9.65
2023-08-20T17:02:36.412Z,9.23
2023-08-20T17:05:38.014Z,9.23
2023-08-20T17:08:39.674Z,9.90
2023-08-20T17:11:41.219Z,8.98
2023-08-20T17:14:43.389Z,8.88
2023-08-20T17:17:45.815Z,9.85
2023-08-20T17:20:47.403Z,9.50
2023-08-20T17:23:48.965Z,8.95
2023-08-20T17:26:50.522Z,9.65
2023-08-20T17:29:52.092Z,9.57
2023-08-20T17:32:53.771Z,9.48
2023-08-20T17:35:56.519Z,9.13
2023-08-20T17:38:59.638Z,9.40
2023-08-20T17:42:02.854Z,9.85
2023-08-20T17:45:04.834Z,9.77
2023-08-20T17:48:06.929Z,9.57
2023-08-20T17:51:08.618Z,9.50
2023-08-20T17:54:10.385Z,9.95
2023-08-20T17:57:11.925Z,9.15
2023-08-20T18:00:13.892Z,10.38
2023-08-20T18:03:15.718Z,10.32
2023-08-20T18:06:17.669Z,10.93
2023-08-20T18:09:19.817Z,9.75
2023-08-20T18:12:21.453Z,9.95
2023-08-20T18:15:23.012Z,10.02
2023-08-20T18:18:24.637Z,9.85
2023-08-20T18:21:26.263Z,10.18
2023-08-20T18:24:27.839Z,10.35
2023-08-20T18:27:29.735Z,10.73
2023-08-20T18:30:31.393Z,10.43
2023-08-20T18:33:33.533Z,9.93
2023-08-20T18:36:35.160Z,10.50
2023-08-20T18:39:36.763Z,11.18
2023-08-20T18:42:39.282Z,10.88
2023-08-20T18:45:41.302Z,11.03
2023-08-20T18:48:42.904Z,11.15
2023-08-20T18:51:44.495Z,11.50
2023-08-20T18:54:46.087Z,11.00
2023-08-20T18:57:47.601Z,11.02
2023-08-20T19:00:49.798Z,11.02
2023-08-20T19:03:52.144Z,11.77
2023-08-20T19:06:53.758Z,11.10
2023-08-20T19:09:56.453Z,11.23
2023-08-20T19:12:58.345Z,12.00
2023-08-20T19:16:00.025Z,11.75
2023-08-20T19:19:01.680Z,11.60
2023-08-20T19:22:03.224Z,10.88
2023-08-20T19:25:05.225Z,11.20
2023-08-20T19:28:10.456Z,11.13
2023-08-20T19:31:13.245Z,12.07
2023-08-20T19:34:14.885Z,11.60
2023-08-20T19:37:16.441Z,11.63
2023-08-20T19:40:18.012Z,12.50
2023-08-20T19:43:19.656Z,12.23
2023-08-20T19:46:21.218Z,12.07
2023-08-20T19:49:22.837Z,12.20
2023-08-20T19:52:25.033Z,12.30
2023-08-20T19:55:26.951Z,12.20
2023-08-20T19:58:28.554Z,12.93
2023-08-20T20:01:30.564Z,12.10
2023-08-20T20:04:32.271Z,12.32
2023-08-20T20:07:33.978Z,13.65
2023-08-20T20:10:35.968Z,13.23
2023-08-20T20:13:37.703Z,12.60
2023-08-20T20:16:39.311Z,11.98
2023-08-20T20:19:41.908Z,13.85
2023-08-20T20:22:46.313Z,13.75
2023-08-20T20:25:47.856Z,14.27
2023-08-20T20:28:49.512Z,14.65
2023-08-20T20:31:51.208Z,14.40
2023-08-20T20:34:53.199Z,14.18
2023-08-20T20:37:54.834Z,13.48
2023-08-20T20:40:56.426Z,14.30
2023-08-20T20:43:58.072Z,14.80
2023-08-20T20:46:59.631Z,14.05
2023-08-20T20:50:02.124Z,15.27
2023-08-20T20:53:04.619Z,15.60
2023-08-20T20:56:06.270Z,13.30
2023-08-20T20:59:08.063Z,13.00
2023-08-20T21:02:09.793Z,14.82
2023-08-20T21:05:11.799Z,14.10
2023-08-20T21:08:13.323Z,14.88
2023-08-20T21:11:14.974Z,14.50
2023-08-20T21:14:16.603Z,14.65
2023-08-20T21:17:18.398Z,14.65
2023-08-20T21:20:20.027Z,14.77
2023-08-20T21:23:22.002Z,14.65
2023-08-20T21:26:24.992Z,15.52
2023-08-20T21:29:26.531Z,14.50
2023-08-20T21:32:28.307Z,14.05
2023-08-20T21:35:30.653Z,15.30
2023-08-20T21:38:33.331Z,14.32
2023-08-20T21:41:35.605Z,14.88
2023-08-20T21:44:37.273Z,13.75
2023-08-20T21:47:40.353Z,14.20
2023-08-20T21:50:42.024Z,15.82
2023-08-20T21:53:44.622Z,13.75
2023-08-20T21:56:54.423Z,15.00
2023-08-20T21:59:57.030Z,15.48
2023-08-20T22:02:59.693Z,15.55
2023-08-20T22:06:02.284Z,15.63
2023-08-20T22:09:04.193Z,14.98
2023-08-20T22:12:06.034Z,17.40
2023-08-20T22:15:08.499Z,16.10
2023-08-20T22:18:10.297Z,16.92
2023-08-20T22:21:12.087Z,15.82
2023-08-20T22:24:21.442Z,17.50
2023-08-20T22:27:23.244Z,16.13
2023-08-20T22:30:25.067Z,16.40
2023-08-20T22:33:26.847Z,16.73
2023-08-20T22:36:28.459Z,15.93
2023-08-20T22:39:30.450Z,17.52
2023-08-20T22:42:32.034Z,16.35
2023-08-20T22:45:34.094Z,15.77
2023-08-20T22:48:36.055Z,15.35
2023-08-20T22:51:37.858Z,16.98
2023-08-20T22:54:40.654Z,17.42
2023-08-20T22:57:42.469Z,16.75
2023-08-20T23:00:44.267Z,17.60
2023-08-20T23:03:46.027Z,17.65
2023-08-20T23:06:48.071Z,16.95
2023-08-20T23:09:49.854Z,16.30
2023-08-20T23:12:51.689Z,16.70
2023-08-20T23:15:54.474Z,15.68
2023-08-20T23:18:56.177Z,15.85
2023-08-20T23:21:58.276Z,17.88
2023-08-20T23:25:00.124Z,18.92
2023-08-20T23:28:01.720Z,17.88
2023-08-20T23:31:07.247Z,20.52
2023-08-20T23:34:09.084Z,18.50
2023-08-20T23:37:11.325Z,19.23
2023-08-20T23:40:13.208Z,19.02
2023-08-20T23:43:15.258Z,18.20
2023-08-20T23:46:17.536Z,16.80
2023-08-20T23:49:19.293Z,17.35
2023-08-20T23:52:21.094Z,16.50
2023-08-20T23:55:22.896Z,17.75
2023-08-20T23:58:24.898Z,18.33
